Time;durP1;ratioP1;P1;durP2;ratioP2;P2;SDS_P1;SDS_P2;PMS_P1;PMS_P2;Temp;Humidity;BMP_temperature;BMP_pressure;BME280_temperature;BME280_humidity;BME280_pressure;Samples;Min_cycle;Max_cycle;Signal;HPM_P1;HPM_P2
2023/06/23 00:01:26;;;;;;;22.50;19.40;;;;;;;;;;6307158;28;20207;-64
2023/06/23 00:04:27;;;;;;;21.20;18.83;;;;;;;;;;6274523;28;20218;-64
2023/06/23 00:07:28;;;;;;;21.80;19.60;;;;;;;;;;6286118;28;20233;-64
2023/06/23 00:10:29;;;;;;;21.40;19.33;;;;;;;;;;6278697;28;20193;-64
2023/06/23 00:13:34;;;;;;;21.17;19.03;;;;;;;;;;6283450;28;20197;-64
2023/06/23 00:16:39;;;;;;;21.57;19.07;;;;;;;;;;6285760;28;20281;-64
2023/06/23 00:19:40;;;;;;;21.50;19.20;;;;;;;;;;6284796;28;20182;-64
2023/06/23 00:22:42;;;;;;;22.30;20.03;;;;;;;;;;6282213;28;20193;-64
2023/06/23 00:25:43;;;;;;;21.97;19.50;;;;;;;;;;6278993;28;20217;-64
2023/06/23 00:28:44;;;;;;;21.90;19.53;;;;;;;;;;6277493;28;20286;-64
2023/06/23 00:31:45;;;;;;;24.90;20.27;;;;;;;;;;6266055;28;20216;-64
2023/06/23 00:34:46;;;;;;;22.03;19.70;;;;;;;;;;6279027;28;20194;-64
2023/06/23 00:37:47;;;;;;;23.63;20.07;;;;;;;;;;6283124;28;20193;-64
2023/06/23 00:40:48;;;;;;;22.60;19.93;;;;;;;;;;6276544;28;20240;-64
2023/06/23 00:43:50;;;;;;;21.43;19.23;;;;;;;;;;6282430;28;20215;-64
2023/06/23 00:46:51;;;;;;;22.87;20.20;;;;;;;;;;6286994;28;20256;-64
2023/06/23 00:49:52;;;;;;;21.97;19.80;;;;;;;;;;6271155;28;20243;-64
2023/06/23 00:52:53;;;;;;;22.03;19.73;;;;;;;;;;6291619;28;20193;-64
2023/06/23 00:55:54;;;;;;;22.60;20.30;;;;;;;;;;6302138;28;20222;-64
2023/06/23 00:58:56;;;;;;;22.00;19.73;;;;;;;;;;6281871;28;20224;-64
2023/06/23 01:01:59;;;;;;;22.83;20.50;;;;;;;;;;6288369;28;20204;-64
2023/06/23 01:05:00;;;;;;;23.27;19.30;;;;;;;;;;6300299;28;20211;-64
2023/06/23 01:08:04;;;;;;;20.97;18.83;;;;;;;;;;6280545;28;20205;-64
2023/06/23 01:11:11;;;;;;;23.10;20.83;;;;;;;;;;6288846;28;20185;-64
2023/06/23 01:14:17;;;;;;;22.30;19.33;;;;;;;;;;6294681;28;20190;-64
2023/06/23 01:17:24;;;;;;;22.10;19.90;;;;;;;;;;6284328;28;20186;-64
2023/06/23 01:20:29;;;;;;;22.47;20.17;;;;;;;;;;6307695;28;20189;-64
2023/06/23 01:23:33;;;;;;;22.50;20.17;;;;;;;;;;6300212;28;20200;-64
2023/06/23 01:26:50;;;;;;;21.80;19.80;;;;;;;;;;6296369;28;20285;-64
2023/06/23 01:29:52;;;;;;;21.67;19.03;;;;;;;;;;6292886;28;20185;-64
2023/06/23 01:32:57;;;;;;;22.93;19.07;;;;;;;;;;6297093;28;20190;-64
2023/06/23 01:36:03;;;;;;;23.73;20.97;;;;;;;;;;6303300;28;20194;-64
2023/06/23 01:39:04;;;;;;;22.77;19.97;;;;;;;;;;6283973;28;20193;-64
2023/06/23 01:42:15;;;;;;;22.73;20.27;;;;;;;;;;6285828;28;20213;-64
2023/06/23 01:45:17;;;;;;;23.90;19.53;;;;;;;;;;6289910;28;20313;-64
2023/06/23 01:48:19;;;;;;;22.03;19.67;;;;;;;;;;6302624;28;20197;-64
2023/06/23 01:51:20;;;;;;;22.70;20.37;;;;;;;;;;6280012;28;20190;-64
2023/06/23 01:54:22;;;;;;;20.77;18.80;;;;;;;;;;6288752;28;20209;-64
2023/06/23 01:57:25;;;;;;;21.97;19.73;;;;;;;;;;6279898;28;20193;-64
2023/06/23 02:00:26;;;;;;;26.33;20.53;;;;;;;;;;6295730;28;20276;-64
2023/06/23 02:03:28;;;;;;;22.13;19.97;;;;;;;;;;6294827;28;20197;-64
2023/06/23 02:06:30;;;;;;;20.57;18.40;;;;;;;;;;6296219;28;20185;-64
2023/06/23 02:09:32;;;;;;;22.43;20.03;;;;;;;;;;6290214;28;20260;-64
2023/06/23 02:12:38;;;;;;;22.37;20.10;;;;;;;;;;6292713;28;20178;-64
2023/06/23 02:15:40;;;;;;;20.57;18.57;;;;;;;;;;6292446;28;20193;-64
2023/06/23 02:18:41;;;;;;;21.83;19.50;;;;;;;;;;6281765;28;20196;-64
2023/06/23 02:21:43;;;;;;;24.67;20.13;;;;;;;;;;6282166;28;20232;-64
2023/06/23 02:24:46;;;;;;;25.60;20.43;;;;;;;;;;6289583;28;20227;-64
2023/06/23 02:27:47;;;;;;;22.50;20.00;;;;;;;;;;6284887;28;20193;-64
2023/06/23 02:30:49;;;;;;;24.00;20.00;;;;;;;;;;6292139;28;20242;-64
2023/06/23 02:33:51;;;;;;;21.63;19.07;;;;;;;;;;6295623;28;20224;-64
2023/06/23 02:36:54;;;;;;;21.93;19.83;;;;;;;;;;6285688;28;20196;-64
2023/06/23 02:39:58;;;;;;;21.47;19.37;;;;;;;;;;6297780;28;20201;-64
2023/06/23 02:43:05;;;;;;;21.80;19.43;;;;;;;;;;6275927;28;20193;-64
2023/06/23 02:46:09;;;;;;;24.37;21.40;;;;;;;;;;6287375;28;20319;-64
2023/06/23 02:49:22;;;;;;;21.87;19.53;;;;;;;;;;6298228;28;20196;-64
2023/06/23 02:52:24;;;;;;;22.50;20.20;;;;;;;;;;6292121;28;20190;-64
2023/06/23 02:55:26;;;;;;;23.57;19.83;;;;;;;;;;6292868;28;20197;-64
2023/06/23 02:58:28;;;;;;;23.17;20.37;;;;;;;;;;6280419;28;20186;-65
2023/06/23 03:01:31;;;;;;;21.93;19.80;;;;;;;;;;6280696;28;20196;-64
2023/06/23 03:04:32;;;;;;;21.37;19.17;;;;;;;;;;6282483;28;20221;-65
2023/06/23 03:07:34;;;;;;;22.30;20.10;;;;;;;;;;6297668;28;20258;-65
2023/06/23 03:10:35;;;;;;;21.90;19.80;;;;;;;;;;6274637;28;20189;-64
2023/06/23 03:13:36;;;;;;;21.90;19.70;;;;;;;;;;6290355;28;20194;-64
2023/06/23 03:16:49;;;;;;;21.67;19.33;;;;;;;;;;6288356;28;20200;-65
2023/06/23 03:19:53;;;;;;;23.87;21.27;;;;;;;;;;6288850;28;20225;-64
2023/06/23 03:23:11;;;;;;;22.67;20.47;;;;;;;;;;6293944;28;20251;-63
2023/06/23 03:26:13;;;;;;;22.80;20.37;;;;;;;;;;6287813;28;20213;-63
2023/06/23 03:29:15;;;;;;;21.00;18.80;;;;;;;;;;6274448;28;20273;-63
2023/06/23 03:32:19;;;;;;;22.00;19.70;;;;;;;;;;6284918;28;20196;-63
2023/06/23 03:35:22;;;;;;;22.93;20.73;;;;;;;;;;6290200;28;20203;-63
2023/06/23 03:38:24;;;;;;;22.57;19.87;;;;;;;;;;6285390;28;20193;-63
2023/06/23 03:41:27;;;;;;;23.00;20.47;;;;;;;;;;6285293;28;20279;-64
2023/06/23 03:44:31;;;;;;;22.37;19.97;;;;;;;;;;6277718;28;20209;-63
2023/06/23 03:47:32;;;;;;;22.77;20.47;;;;;;;;;;6302974;28;20236;-64
2023/06/23 03:50:35;;;;;;;22.53;20.17;;;;;;;;;;6272359;28;20224;-63
2023/06/23 03:53:37;;;;;;;23.63;21.07;;;;;;;;;;6283055;28;20191;-63
2023/06/23 03:56:39;;;;;;;24.37;21.77;;;;;;;;;;6296030;28;20200;-63
2023/06/23 03:59:41;;;;;;;22.93;20.53;;;;;;;;;;6290087;28;20193;-63
2023/06/23 04:02:43;;;;;;;24.87;21.63;;;;;;;;;;6283357;28;20189;-64
2023/06/23 04:05:44;;;;;;;23.80;20.63;;;;;;;;;;6287965;28;20300;-64
2023/06/23 04:08:46;;;;;;;23.67;21.17;;;;;;;;;;6272737;28;20276;-64
2023/06/23 04:11:48;;;;;;;23.13;20.57;;;;;;;;;;6272124;28;20196;-64
2023/06/23 04:14:52;;;;;;;22.07;19.77;;;;;;;;;;6276367;28;20198;-63
2023/06/23 04:17:54;;;;;;;23.00;20.63;;;;;;;;;;6284464;28;20186;-63
2023/06/23 04:20:57;;;;;;;23.23;20.57;;;;;;;;;;6272081;28;20202;-65
2023/06/23 04:23:59;;;;;;;21.57;19.40;;;;;;;;;;6291611;28;20228;-63
2023/06/23 04:27:01;;;;;;;22.77;20.37;;;;;;;;;;6272971;28;20193;-63
2023/06/23 04:30:04;;;;;;;22.17;19.80;;;;;;;;;;6280651;28;20257;-64
2023/06/23 04:33:05;;;;;;;22.17;19.83;;;;;;;;;;6278216;28;20194;-63
2023/06/23 04:36:10;;;;;;;21.87;19.60;;;;;;;;;;6274668;28;20204;-62
2023/06/23 04:39:27;;;;;;;22.63;20.23;;;;;;;;;;6285945;28;20290;-63
2023/06/23 04:42:33;;;;;;;21.43;19.17;;;;;;;;;;6290527;28;20193;-63
2023/06/23 04:45:36;;;;;;;21.33;19.10;;;;;;;;;;6280782;28;20249;-63
2023/06/23 04:48:42;;;;;;;20.20;18.03;;;;;;;;;;6292907;28;20253;-63
2023/06/23 04:51:47;;;;;;;24.17;19.03;;;;;;;;;;6281946;28;20190;-63
2023/06/23 04:54:50;;;;;;;22.80;19.17;;;;;;;;;;6273726;28;20212;-63
2023/06/23 04:57:55;;;;;;;21.77;19.60;;;;;;;;;;6274316;28;20197;-63
2023/06/23 05:00:57;;;;;;;23.40;20.23;;;;;;;;;;6306706;28;20195;-63
2023/06/23 05:04:00;;;;;;;22.17;19.53;;;;;;;;;;6271433;28;20214;-63
2023/06/23 05:07:02;;;;;;;23.70;20.80;;;;;;;;;;6295868;28;20185;-63
2023/06/23 05:10:05;;;;;;;21.47;18.77;;;;;;;;;;6289855;28;20194;-63
2023/06/23 05:13:07;;;;;;;20.93;18.70;;;;;;;;;;6285134;28;20214;-63
2023/06/23 05:16:10;;;;;;;22.87;19.73;;;;;;;;;;6285938;28;20217;-63
2023/06/23 05:19:12;;;;;;;25.30;19.07;;;;;;;;;;6279898;28;20226;-63
2023/06/23 05:22:16;;;;;;;20.23;18.07;;;;;;;;;;6282264;28;20198;-63
2023/06/23 05:25:18;;;;;;;25.57;19.87;;;;;;;;;;6294634;28;20221;-63
2023/06/23 05:28:20;;;;;;;21.07;18.93;;;;;;;;;;6274432;28;20186;-62
2023/06/23 05:31:22;;;;;;;19.77;17.80;;;;;;;;;;6287440;28;20555;-62
2023/06/23 05:34:24;;;;;;;21.07;18.93;;;;;;;;;;6289912;28;20205;-62
2023/06/23 05:37:27;;;;;;;26.03;18.83;;;;;;;;;;6301658;28;20229;-63
2023/06/23 05:40:28;;;;;;;19.50;17.50;;;;;;;;;;6279918;28;20189;-63
2023/06/23 05:43:29;;;;;;;21.07;18.20;;;;;;;;;;6304996;28;20185;-63
2023/06/23 05:46:31;;;;;;;19.87;17.70;;;;;;;;;;6284519;28;20235;-62
2023/06/23 05:49:35;;;;;;;19.87;17.87;;;;;;;;;;6284154;28;20192;-63
2023/06/23 05:52:37;;;;;;;18.83;16.93;;;;;;;;;;6293288;28;20209;-63
2023/06/23 05:55:47;;;;;;;19.37;17.37;;;;;;;;;;6272532;28;20216;-62
2023/06/23 05:58:48;;;;;;;20.50;17.23;;;;;;;;;;6293170;28;20249;-62
2023/06/23 06:01:51;;;;;;;19.30;16.33;;;;;;;;;;6271273;28;20194;-63
2023/06/23 06:05:00;;;;;;;20.70;16.60;;;;;;;;;;6293091;28;20205;-64
2023/06/23 06:08:02;;;;;;;19.53;16.53;;;;;;;;;;6284875;28;20182;-64
2023/06/23 06:11:03;;;;;;;19.63;15.47;;;;;;;;;;6269455;28;20190;-64
2023/06/23 06:14:07;;;;;;;22.93;15.63;;;;;;;;;;6271746;28;20193;-64
2023/06/23 06:17:09;;;;;;;19.93;15.40;;;;;;;;;;6286763;28;20185;-64
2023/06/23 06:20:12;;;;;;;16.63;14.30;;;;;;;;;;6283671;28;20204;-64
2023/06/23 06:23:14;;;;;;;18.30;15.50;;;;;;;;;;6275606;28;20257;-64
2023/06/23 06:26:16;;;;;;;18.27;14.43;;;;;;;;;;6308062;28;20220;-64
2023/06/23 06:29:18;;;;;;;14.73;13.10;;;;;;;;;;6272970;28;20190;-64
2023/06/23 06:32:20;;;;;;;14.17;12.57;;;;;;;;;;6279426;28;20213;-64
2023/06/23 06:35:22;;;;;;;17.70;13.00;;;;;;;;;;6274209;28;20201;-64
2023/06/23 06:38:24;;;;;;;17.73;12.63;;;;;;;;;;6287687;28;20186;-63
2023/06/23 06:41:25;;;;;;;16.73;13.10;;;;;;;;;;6279046;28;20263;-64
2023/06/23 06:44:26;;;;;;;16.27;11.97;;;;;;;;;;6270872;28;20274;-64
2023/06/23 06:47:28;;;;;;;16.80;14.20;;;;;;;;;;6276086;28;20236;-64
2023/06/23 06:50:29;;;;;;;17.73;13.80;;;;;;;;;;6282519;28;20193;-64
2023/06/23 06:53:31;;;;;;;17.87;13.27;;;;;;;;;;6281861;28;20250;-64
2023/06/23 06:56:32;;;;;;;17.47;14.80;;;;;;;;;;6263020;28;20281;-64
2023/06/23 06:59:33;;;;;;;15.97;13.60;;;;;;;;;;6274780;28;20193;-64
2023/06/23 07:02:35;;;;;;;18.07;13.07;;;;;;;;;;6272604;28;20280;-64
2023/06/23 07:05:36;;;;;;;16.83;13.70;;;;;;;;;;6269686;28;20214;-64
2023/06/23 07:08:37;;;;;;;15.20;13.27;;;;;;;;;;6283310;28;20188;-64
2023/06/23 07:11:38;;;;;;;16.03;12.73;;;;;;;;;;6273743;28;20240;-64
2023/06/23 07:14:39;;;;;;;16.10;12.53;;;;;;;;;;6282976;28;20210;-64
2023/06/23 07:17:40;;;;;;;13.67;11.50;;;;;;;;;;6263590;28;20319;-64
2023/06/23 07:20:41;;;;;;;13.33;11.10;;;;;;;;;;6274100;28;20193;-64
2023/06/23 07:23:42;;;;;;;16.57;10.90;;;;;;;;;;6273828;28;20186;-64
2023/06/23 07:26:43;;;;;;;13.70;10.30;;;;;;;;;;6286188;28;20188;-64
2023/06/23 07:29:44;;;;;;;12.50;10.17;;;;;;;;;;6273755;28;20193;-64
2023/06/23 07:32:45;;;;;;;13.70;8.03;;;;;;;;;;6271582;28;20189;-64
2023/06/23 07:35:46;;;;;;;15.77;9.50;;;;;;;;;;6280839;28;20205;-64
2023/06/23 07:38:48;;;;;;;16.07;11.20;;;;;;;;;;6282353;28;20188;-64
2023/06/23 07:41:49;;;;;;;16.83;11.07;;;;;;;;;;6269914;28;20197;-64
2023/06/23 07:44:50;;;;;;;12.67;10.60;;;;;;;;;;6279204;28;20270;-64
2023/06/23 07:47:51;;;;;;;14.23;9.83;;;;;;;;;;6279453;28;20264;-64
2023/06/23 07:50:52;;;;;;;12.67;11.03;;;;;;;;;;6278298;28;20270;-64
2023/06/23 07:53:55;;;;;;;15.47;11.73;;;;;;;;;;6272630;28;20212;-64
2023/06/23 07:56:56;;;;;;;23.87;12.00;;;;;;;;;;6271168;28;20192;-65
2023/06/23 07:59:57;;;;;;;15.67;11.97;;;;;;;;;;6274534;28;20240;-64
2023/06/23 08:02:58;;;;;;;15.83;12.20;;;;;;;;;;6273623;28;20300;-64
2023/06/23 08:05:59;;;;;;;17.53;12.20;;;;;;;;;;6282374;28;20221;-64
2023/06/23 08:09:01;;;;;;;14.50;8.70;;;;;;;;;;6269672;28;20212;-64
2023/06/23 08:12:02;;;;;;;17.47;9.90;;;;;;;;;;6271409;28;20281;-64
2023/06/23 08:15:03;;;;;;;17.77;9.67;;;;;;;;;;6271539;28;20292;-64
2023/06/23 08:18:04;;;;;;;13.17;8.03;;;;;;;;;;6296106;28;20204;-64
2023/06/23 08:21:05;;;;;;;15.03;8.87;;;;;;;;;;6277115;28;20205;-64
2023/06/23 08:24:06;;;;;;;16.53;8.20;;;;;;;;;;6278496;28;20217;-65
2023/06/23 08:27:07;;;;;;;19.60;9.37;;;;;;;;;;6270599;28;20223;-64
2023/06/23 08:30:08;;;;;;;13.33;8.40;;;;;;;;;;6294680;28;20192;-64
2023/06/23 08:33:10;;;;;;;12.87;7.70;;;;;;;;;;6289748;28;20189;-64
2023/06/23 08:36:11;;;;;;;15.73;8.90;;;;;;;;;;6281516;28;20326;-64
2023/06/23 08:39:12;;;;;;;11.27;8.37;;;;;;;;;;6263176;28;20197;-64
2023/06/23 08:42:13;;;;;;;12.10;8.50;;;;;;;;;;6286333;28;20209;-64
2023/06/23 08:45:16;;;;;;;12.77;8.20;;;;;;;;;;6288004;28;20352;-64
2023/06/23 08:48:17;;;;;;;14.20;8.90;;;;;;;;;;6274235;28;20185;-64
2023/06/23 08:51:19;;;;;;;14.30;7.80;;;;;;;;;;6284602;28;20273;-64
2023/06/23 08:54:20;;;;;;;15.40;8.73;;;;;;;;;;6272543;28;20201;-64
2023/06/23 08:57:22;;;;;;;17.47;9.23;;;;;;;;;;6281583;28;20220;-64
2023/06/23 09:00:23;;;;;;;11.77;8.60;;;;;;;;;;6283504;28;20192;-64
2023/06/23 09:03:24;;;;;;;22.60;9.57;;;;;;;;;;6274514;28;20300;-64
2023/06/23 09:06:25;;;;;;;14.27;10.63;;;;;;;;;;6269419;28;20224;-64
2023/06/23 09:09:26;;;;;;;13.43;9.87;;;;;;;;;;6284606;28;20185;-64
2023/06/23 09:12:27;;;;;;;16.13;10.03;;;;;;;;;;6290930;28;20200;-65
2023/06/23 09:15:29;;;;;;;16.67;8.73;;;;;;;;;;6293400;28;20200;-64
2023/06/23 09:18:32;;;;;;;14.40;9.67;;;;;;;;;;6279412;28;20285;-64
2023/06/23 09:21:37;;;;;;;20.53;10.47;;;;;;;;;;6266460;28;20190;-64
2023/06/23 09:24:45;;;;;;;17.13;10.23;;;;;;;;;;6285141;28;20212;-64
2023/06/23 09:27:46;;;;;;;12.00;9.17;;;;;;;;;;6273417;28;20194;-64
2023/06/23 09:30:47;;;;;;;14.97;9.40;;;;;;;;;;6281296;28;20189;-64
2023/06/23 09:33:49;;;;;;;15.10;9.73;;;;;;;;;;6274081;28;20197;-65
2023/06/23 09:36:52;;;;;;;13.53;10.53;;;;;;;;;;6291655;28;20215;-64
2023/06/23 09:39:55;;;;;;;15.63;10.43;;;;;;;;;;6287173;28;20185;-63
2023/06/23 09:43:00;;;;;;;16.73;10.73;;;;;;;;;;6278745;28;20189;-64
2023/06/23 09:46:05;;;;;;;11.43;10.13;;;;;;;;;;6288881;28;20262;-65
2023/06/23 09:49:07;;;;;;;15.80;10.20;;;;;;;;;;6294240;28;20220;-65
2023/06/23 09:52:11;;;;;;;13.10;10.17;;;;;;;;;;6272563;28;20186;-65
2023/06/23 09:55:13;;;;;;;12.47;10.10;;;;;;;;;;6274135;28;20217;-65
2023/06/23 09:58:14;;;;;;;13.37;10.37;;;;;;;;;;6283215;28;20182;-64
2023/06/23 10:01:17;;;;;;;14.23;10.73;;;;;;;;;;6284460;28;20196;-64
2023/06/23 10:04:18;;;;;;;14.53;10.43;;;;;;;;;;6285144;28;20286;-64
2023/06/23 10:07:21;;;;;;;16.43;10.67;;;;;;;;;;6296741;28;20191;-63
2023/06/23 10:10:22;;;;;;;13.33;10.07;;;;;;;;;;6276307;28;20186;-65
2023/06/23 10:13:23;;;;;;;14.07;10.87;;;;;;;;;;6270789;28;20191;-63
2023/06/23 10:16:24;;;;;;;16.47;10.30;;;;;;;;;;6284591;28;20196;-64
2023/06/23 10:19:25;;;;;;;13.90;11.07;;;;;;;;;;6284761;28;20304;-63
2023/06/23 10:22:27;;;;;;;14.63;10.83;;;;;;;;;;6274114;28;20205;-63
2023/06/23 10:25:28;;;;;;;15.47;11.17;;;;;;;;;;6278313;28;20252;-63
2023/06/23 10:28:30;;;;;;;17.83;11.93;;;;;;;;;;6283825;28;20192;-63
2023/06/23 10:31:32;;;;;;;16.37;9.63;;;;;;;;;;6277568;28;20232;-63
2023/06/23 10:34:33;;;;;;;12.77;7.30;;;;;;;;;;6277780;28;20212;-65
2023/06/23 10:37:34;;;;;;;10.60;6.83;;;;;;;;;;6284642;28;20215;-63
2023/06/23 10:40:40;;;;;;;10.77;6.07;;;;;;;;;;6272995;28;20197;-63
2023/06/23 10:43:42;;;;;;;8.83;5.30;;;;;;;;;;6282840;28;20215;-65
2023/06/23 10:46:43;;;;;;;11.40;5.33;;;;;;;;;;6296546;28;20233;-64
2023/06/23 10:49:45;;;;;;;7.60;5.27;;;;;;;;;;6272238;28;20197;-64
2023/06/23 10:52:46;;;;;;;9.33;4.90;;;;;;;;;;6294374;28;20187;-64
2023/06/23 10:55:48;;;;;;;11.10;5.67;;;;;;;;;;6277716;28;20197;-64
2023/06/23 10:58:49;;;;;;;9.90;4.67;;;;;;;;;;6292525;28;20185;-63
2023/06/23 11:02:11;;;;;;;10.90;4.97;;;;;;;;;;6285771;28;20208;-64
2023/06/23 11:05:17;;;;;;;12.13;4.77;;;;;;;;;;6273803;28;20253;-64
2023/06/23 11:08:18;;;;;;;11.37;4.33;;;;;;;;;;6290290;28;20209;-63
2023/06/23 11:11:30;;;;;;;9.77;5.03;;;;;;;;;;6278401;28;20182;-63
2023/06/23 11:14:42;;;;;;;10.50;4.80;;;;;;;;;;6272639;28;20217;-63
2023/06/23 11:17:44;;;;;;;12.13;4.57;;;;;;;;;;6272950;28;20289;-63
2023/06/23 11:20:45;;;;;;;9.27;3.80;;;;;;;;;;6285212;28;20189;-64
2023/06/23 11:24:05;;;;;;;6.43;3.40;;;;;;;;;;6276114;28;20200;-63
2023/06/23 11:27:10;;;;;;;9.93;4.03;;;;;;;;;;6293022;28;20186;-63
2023/06/23 11:30:18;;;;;;;8.67;3.93;;;;;;;;;;6276001;28;20240;-63
2023/06/23 11:33:26;;;;;;;6.03;3.77;;;;;;;;;;6278880;28;20215;-63
2023/06/23 11:36:28;;;;;;;4.93;3.43;;;;;;;;;;6291738;28;20319;-65
2023/06/23 11:39:29;;;;;;;9.83;3.90;;;;;;;;;;6276735;28;20188;-63
2023/06/23 11:42:30;;;;;;;6.67;3.87;;;;;;;;;;6276332;28;20192;-64
2023/06/23 11:45:32;;;;;;;11.27;4.30;;;;;;;;;;6273834;28;20236;-64
2023/06/23 11:48:35;;;;;;;6.87;4.00;;;;;;;;;;6281582;28;20197;-64
2023/06/23 11:51:37;;;;;;;7.50;4.43;;;;;;;;;;6277697;28;20189;-66
2023/06/23 11:54:38;;;;;;;5.83;3.10;;;;;;;;;;6286497;28;20279;-62
2023/06/23 11:57:39;;;;;;;7.17;3.90;;;;;;;;;;6279423;28;20189;-63
2023/06/23 12:00:40;;;;;;;4.13;3.20;;;;;;;;;;6292384;28;20184;-62
2023/06/23 12:03:45;;;;;;;6.03;3.27;;;;;;;;;;6285735;28;20200;-64
2023/06/23 12:06:46;;;;;;;7.43;3.40;;;;;;;;;;6310645;28;20209;-64
2023/06/23 12:09:47;;;;;;;6.57;3.37;;;;;;;;;;6277389;28;20189;-64
2023/06/23 12:12:48;;;;;;;6.90;3.83;;;;;;;;;;6289806;28;20231;-63
2023/06/23 12:15:50;;;;;;;5.20;3.33;;;;;;;;;;6275140;28;20197;-63
2023/06/23 12:18:52;;;;;;;7.53;3.90;;;;;;;;;;6279430;28;20193;-63
2023/06/23 12:21:54;;;;;;;7.70;4.10;;;;;;;;;;6286934;28;20190;-63
2023/06/23 12:24:56;;;;;;;8.13;3.80;;;;;;;;;;6278432;28;20221;-62
2023/06/23 12:27:57;;;;;;;6.20;2.90;;;;;;;;;;6285949;28;20278;-62
2023/06/23 12:30:59;;;;;;;4.70;2.93;;;;;;;;;;6277990;28;20189;-63
2023/06/23 12:34:01;;;;;;;7.20;3.20;;;;;;;;;;6288189;28;20197;-63
2023/06/23 12:37:06;;;;;;;5.97;3.13;;;;;;;;;;6287110;28;20189;-63
2023/06/23 12:40:10;;;;;;;6.43;3.43;;;;;;;;;;6280245;28;20205;-63
2023/06/23 12:43:11;;;;;;;5.57;3.10;;;;;;;;;;6278439;28;20194;-63
2023/06/23 12:46:14;;;;;;;4.90;2.90;;;;;;;;;;6297623;28;20237;-63
2023/06/23 12:49:15;;;;;;;6.63;3.13;;;;;;;;;;6288564;28;20323;-63
2023/06/23 12:52:16;;;;;;;5.93;2.83;;;;;;;;;;6289500;28;20185;-63
2023/06/23 12:55:17;;;;;;;5.80;2.90;;;;;;;;;;6296627;28;20279;-63
2023/06/23 12:58:18;;;;;;;4.50;2.50;;;;;;;;;;6285340;28;20215;-63
2023/06/23 13:01:19;;;;;;;3.20;2.17;;;;;;;;;;6281874;28;20193;-62
2023/06/23 13:04:21;;;;;;;3.07;2.17;;;;;;;;;;6287703;28;20209;-64
2023/06/23 13:07:22;;;;;;;2.93;2.00;;;;;;;;;;6281112;28;20214;-63
2023/06/23 13:10:24;;;;;;;3.30;2.13;;;;;;;;;;6282764;28;20196;-62
2023/06/23 13:13:25;;;;;;;8.33;3.57;;;;;;;;;;6282797;28;20198;-64
2023/06/23 13:16:26;;;;;;;5.53;2.70;;;;;;;;;;6283285;28;20196;-63
2023/06/23 13:19:27;;;;;;;4.03;2.30;;;;;;;;;;6280814;28;20197;-63
2023/06/23 13:22:28;;;;;;;7.27;3.67;;;;;;;;;;6278530;28;20211;-63
2023/06/23 13:25:29;;;;;;;5.40;2.57;;;;;;;;;;6282424;28;20254;-63
2023/06/23 13:28:30;;;;;;;4.73;2.63;;;;;;;;;;6275334;28;20184;-63
2023/06/23 13:31:31;;;;;;;5.37;2.70;;;;;;;;;;6290098;28;20189;-63
2023/06/23 13:34:33;;;;;;;3.80;2.40;;;;;;;;;;6285345;28;20193;-63
2023/06/23 13:37:35;;;;;;;5.77;2.20;;;;;;;;;;6281841;28;20252;-63
2023/06/23 13:40:36;;;;;;;5.17;2.37;;;;;;;;;;6285012;28;20238;-63
2023/06/23 13:43:37;;;;;;;10.47;2.80;;;;;;;;;;6289467;28;20199;-63
2023/06/23 13:46:38;;;;;;;7.40;3.20;;;;;;;;;;6242221;28;1201947;-63
2023/06/23 13:49:39;;;;;;;13.03;4.60;;;;;;;;;;6274602;28;20200;-63
2023/06/23 13:52:41;;;;;;;7.90;4.40;;;;;;;;;;6287994;28;20205;-64
2023/06/23 13:55:42;;;;;;;4.80;3.20;;;;;;;;;;6275679;28;20192;-64
2023/06/23 13:58:43;;;;;;;6.37;3.23;;;;;;;;;;6295688;28;20189;-64
2023/06/23 14:01:44;;;;;;;5.90;3.40;;;;;;;;;;6274328;28;20251;-64
2023/06/23 14:04:45;;;;;;;5.50;3.10;;;;;;;;;;6285910;28;20241;-64
2023/06/23 14:07:46;;;;;;;4.47;3.07;;;;;;;;;;6274047;28;20198;-64
2023/06/23 14:10:47;;;;;;;7.60;3.43;;;;;;;;;;6279105;28;20192;-64
2023/06/23 14:13:48;;;;;;;7.00;3.73;;;;;;;;;;6291508;28;20189;-64
2023/06/23 14:16:49;;;;;;;24.57;5.80;;;;;;;;;;6278388;28;20189;-64
2023/06/23 14:19:50;;;;;;;43.20;8.83;;;;;;;;;;6290792;28;20191;-64
2023/06/23 14:22:52;;;;;;;8.87;4.60;;;;;;;;;;6277290;28;20200;-64
2023/06/23 14:25:55;;;;;;;13.70;5.03;;;;;;;;;;6281434;28;20204;-64
2023/06/23 14:28:56;;;;;;;26.90;8.03;;;;;;;;;;6278832;28;20186;-63
2023/06/23 14:31:57;;;;;;;13.53;5.97;;;;;;;;;;6270200;28;20189;-63
2023/06/23 14:34:58;;;;;;;12.27;5.83;;;;;;;;;;6281840;28;20269;-64
2023/06/23 14:38:05;;;;;;;17.80;6.00;;;;;;;;;;6289757;28;20204;-64
2023/06/23 14:41:06;;;;;;;10.60;4.80;;;;;;;;;;6271372;28;20214;-64
2023/06/23 14:44:07;;;;;;;7.07;3.87;;;;;;;;;;6280313;28;20194;-64
2023/06/23 14:47:08;;;;;;;8.43;4.73;;;;;;;;;;6282094;28;20240;-64
2023/06/23 14:50:09;;;;;;;9.27;4.90;;;;;;;;;;6273679;28;20219;-64
2023/06/23 14:53:10;;;;;;;8.27;3.70;;;;;;;;;;6282213;28;20197;-64
2023/06/23 14:56:11;;;;;;;7.07;4.03;;;;;;;;;;6276301;28;20201;-64
2023/06/23 14:59:13;;;;;;;6.13;3.40;;;;;;;;;;6275529;28;20188;-65
2023/06/23 15:02:14;;;;;;;6.17;3.00;;;;;;;;;;6282835;28;20209;-64
2023/06/23 15:05:15;;;;;;;4.83;3.47;;;;;;;;;;6283495;28;20220;-63
2023/06/23 15:08:16;;;;;;;5.23;3.73;;;;;;;;;;6275769;28;20244;-64
2023/06/23 15:11:17;;;;;;;4.97;3.80;;;;;;;;;;6269922;28;20200;-64
2023/06/23 15:14:18;;;;;;;4.60;3.80;;;;;;;;;;6276136;28;20348;-63
2023/06/23 15:17:19;;;;;;;4.83;3.57;;;;;;;;;;6273218;28;20250;-64
2023/06/23 15:20:20;;;;;;;7.67;4.77;;;;;;;;;;6292670;28;20192;-63
2023/06/23 15:23:24;;;;;;;6.60;4.80;;;;;;;;;;6262535;28;20219;-63
2023/06/23 15:26:26;;;;;;;7.57;4.53;;;;;;;;;;6287569;28;20218;-66
2023/06/23 15:29:27;;;;;;;7.40;4.07;;;;;;;;;;6290190;28;20253;-68
2023/06/23 15:32:28;;;;;;;4.47;3.67;;;;;;;;;;6274630;28;20189;-64
2023/06/23 15:35:29;;;;;;;9.43;5.10;;;;;;;;;;6286669;28;20203;-63
2023/06/23 15:38:30;;;;;;;5.03;3.93;;;;;;;;;;6292246;28;20192;-64
2023/06/23 15:41:33;;;;;;;5.57;4.57;;;;;;;;;;6270973;28;20193;-63
2023/06/23 15:44:34;;;;;;;5.47;4.53;;;;;;;;;;6290251;28;20271;-64
2023/06/23 15:47:35;;;;;;;8.33;4.90;;;;;;;;;;6292887;28;20252;-66
2023/06/23 15:50:36;;;;;;;5.93;4.77;;;;;;;;;;6289193;28;20272;-65
2023/06/23 15:53:38;;;;;;;6.20;4.23;;;;;;;;;;6285672;28;20204;-66
2023/06/23 15:56:39;;;;;;;6.20;4.57;;;;;;;;;;6284882;28;20235;-65
2023/06/23 15:59:40;;;;;;;7.30;5.17;;;;;;;;;;6282031;28;20194;-67
2023/06/23 16:02:41;;;;;;;5.10;4.27;;;;;;;;;;6289171;28;20185;-65
2023/06/23 16:05:42;;;;;;;6.90;5.50;;;;;;;;;;6288695;28;20209;-65
2023/06/23 16:08:44;;;;;;;8.37;5.60;;;;;;;;;;6286295;28;20208;-66
2023/06/23 16:11:45;;;;;;;6.93;5.03;;;;;;;;;;6290192;28;20194;-66
2023/06/23 16:14:46;;;;;;;8.20;6.10;;;;;;;;;;6279287;28;20204;-66
2023/06/23 16:17:50;;;;;;;7.63;5.33;;;;;;;;;;6277383;28;20243;-65
2023/06/23 16:20:51;;;;;;;4.93;4.37;;;;;;;;;;6276666;28;20202;-66
2023/06/23 16:23:52;;;;;;;5.23;4.73;;;;;;;;;;6279857;28;20200;-65
2023/06/23 16:26:54;;;;;;;8.67;5.90;;;;;;;;;;6281902;28;20217;-66
2023/06/23 16:29:55;;;;;;;7.93;5.47;;;;;;;;;;6280246;28;20268;-66
2023/06/23 16:32:56;;;;;;;5.97;5.40;;;;;;;;;;6288302;28;20184;-65
2023/06/23 16:35:57;;;;;;;6.13;5.43;;;;;;;;;;6274685;28;20200;-66
2023/06/23 16:38:58;;;;;;;5.50;5.00;;;;;;;;;;6281051;28;20205;-66
2023/06/23 16:42:01;;;;;;;7.07;5.60;;;;;;;;;;6286163;28;20249;-66
2023/06/23 16:45:02;;;;;;;8.10;5.40;;;;;;;;;;6284256;28;20224;-66
2023/06/23 16:48:03;;;;;;;6.57;4.87;;;;;;;;;;6304084;28;20186;-65
2023/06/23 16:51:04;;;;;;;5.90;5.30;;;;;;;;;;6284142;28;20189;-67
2023/06/23 16:54:05;;;;;;;7.57;6.53;;;;;;;;;;6285388;28;20201;-66
2023/06/23 16:57:06;;;;;;;6.83;5.83;;;;;;;;;;6280511;28;20196;-67
2023/06/23 17:00:08;;;;;;;6.70;6.03;;;;;;;;;;6266694;28;20194;-66
2023/06/23 17:03:09;;;;;;;7.57;6.07;;;;;;;;;;6281184;28;20247;-66
2023/06/23 17:06:10;;;;;;;9.97;6.87;;;;;;;;;;6281060;28;20227;-66
2023/06/23 17:09:12;;;;;;;7.80;7.00;;;;;;;;;;6276304;28;20190;-66
2023/06/23 17:12:13;;;;;;;9.43;7.37;;;;;;;;;;6287554;28;20193;-66
2023/06/23 17:15:14;;;;;;;10.07;6.87;;;;;;;;;;6292414;28;20197;-66
2023/06/23 17:18:15;;;;;;;8.60;6.57;;;;;;;;;;6293252;28;20196;-66
2023/06/23 17:21:16;;;;;;;10.77;7.83;;;;;;;;;;6272767;28;20193;-67
2023/06/23 17:24:17;;;;;;;7.30;6.60;;;;;;;;;;6278003;28;20196;-65
2023/06/23 17:27:18;;;;;;;7.07;6.30;;;;;;;;;;6275740;28;20189;-65
2023/06/23 17:30:20;;;;;;;7.63;6.93;;;;;;;;;;6268991;28;20197;-65
2023/06/23 17:33:21;;;;;;;6.50;5.90;;;;;;;;;;6286924;28;20193;-65
2023/06/23 17:36:22;;;;;;;6.20;5.60;;;;;;;;;;6284959;28;20254;-63
2023/06/23 17:39:23;;;;;;;8.23;7.23;;;;;;;;;;6278800;28;20204;-65
2023/06/23 17:42:24;;;;;;;8.50;7.03;;;;;;;;;;6283037;28;20210;-66
2023/06/23 17:45:27;;;;;;;7.00;6.30;;;;;;;;;;6278164;28;20232;-64
2023/06/23 17:48:28;;;;;;;8.60;6.33;;;;;;;;;;6282666;28;20202;-63
2023/06/23 17:51:29;;;;;;;7.50;6.70;;;;;;;;;;6288942;28;20220;-63
2023/06/23 17:54:30;;;;;;;7.90;6.90;;;;;;;;;;6298861;28;20189;-63